Time;durP1;ratioP1;P1;durP2;ratioP2;P2;SDS_P1;SDS_P2;PMS_P1;PMS_P2;Temp;Humidity;BMP_temperature;BMP_pressure;BME280_temperature;BME280_humidity;BME280_pressure;Samples;Min_cycle;Max_cycle;Signal;HPM_P1;HPM_P2
2022/12/09 00:02:27;;;;;;;36.00;19.20;;;0.00;98.70;;;;;;5066272;28;20247;-84
2022/12/09 00:04:54;;;;;;;30.20;19.27;;;0.00;99.30;;;;;;5064713;28;20677;-84
2022/12/09 00:07:21;;;;;;;31.90;19.17;;;-0.10;99.20;;;;;;5063447;28;20223;-84
2022/12/09 00:09:49;;;;;;;30.27;17.53;;;-0.10;99.20;;;;;;5062991;28;20233;-84
2022/12/09 00:12:16;;;;;;;27.60;15.70;;;0.00;99.20;;;;;;5064360;28;20224;-86
2022/12/09 00:14:43;;;;;;;28.20;16.70;;;0.00;99.20;;;;;;5064788;28;20221;-86
2022/12/09 00:17:09;;;;;;;25.27;15.60;;;0.20;98.90;;;;;;5059268;28;20204;-84
2022/12/09 00:19:36;;;;;;;25.80;15.67;;;0.30;98.00;;;;;;5063090;28;20288;-84
2022/12/09 00:22:03;;;;;;;28.03;16.50;;;0.20;97.90;;;;;;5062306;28;20237;-84
2022/12/09 00:24:30;;;;;;;25.70;16.07;;;0.20;98.10;;;;;;5064365;28;20297;-83
2022/12/09 00:26:59;;;;;;;30.80;16.60;;;0.10;98.00;;;;;;5061529;28;20209;-84
2022/12/09 00:29:26;;;;;;;25.93;15.40;;;0.10;98.40;;;;;;5059840;28;20210;-84
2022/12/09 00:31:55;;;;;;;26.83;15.77;;;0.10;98.20;;;;;;5062561;28;20239;-84
2022/12/09 00:34:22;;;;;;;28.50;15.97;;;0.10;97.70;;;;;;5065609;28;20308;-84
2022/12/09 00:36:49;;;;;;;29.70;16.27;;;0.10;97.70;;;;;;5066076;28;20208;-83
2022/12/09 00:39:19;;;;;;;26.73;15.73;;;0.10;97.60;;;;;;5070134;28;20196;-84
2022/12/09 00:41:47;;;;;;;24.10;14.27;;;0.10;97.30;;;;;;5063928;28;20219;-85
2022/12/09 00:44:16;;;;;;;24.97;13.60;;;-0.10;97.40;;;;;;5064853;28;20813;-84
2022/12/09 00:46:43;;;;;;;26.73;14.47;;;-0.10;97.60;;;;;;5062080;28;20558;-85
2022/12/09 00:49:13;;;;;;;22.87;13.00;;;-0.30;97.70;;;;;;5063499;28;20308;-84
2022/12/09 00:51:40;;;;;;;21.17;12.63;;;-0.40;98.10;;;;;;5063759;28;20229;-83
2022/12/09 00:54:07;;;;;;;23.10;12.60;;;-0.40;98.40;;;;;;5068921;28;20217;-82
2022/12/09 00:56:35;;;;;;;20.17;12.33;;;-0.40;98.10;;;;;;5062033;28;20296;-84
2022/12/09 00:59:02;;;;;;;19.87;12.20;;;-0.50;98.20;;;;;;5064996;28;20209;-85
2022/12/09 01:01:30;;;;;;;21.73;11.77;;;-0.50;98.70;;;;;;5057167;28;20207;-85
2022/12/09 01:03:57;;;;;;;19.30;11.63;;;-0.50;98.30;;;;;;5066622;28;20211;-85
2022/12/09 01:06:26;;;;;;;17.77;11.27;;;-0.60;98.30;;;;;;5063214;28;20297;-84
2022/12/09 01:08:55;;;;;;;14.87;9.40;;;-0.60;98.90;;;;;;5063528;28;20213;-84
2022/12/09 01:11:25;;;;;;;16.10;9.47;;;-0.60;98.80;;;;;;5060504;28;20254;-84
2022/12/09 01:13:52;;;;;;;15.17;8.60;;;-0.60;98.80;;;;;;5063853;28;20224;-85
2022/12/09 01:16:21;;;;;;;13.47;9.23;;;-0.70;99.30;;;;;;5063221;28;20694;-85
2022/12/09 01:18:50;;;;;;;12.70;8.60;;;-0.70;99.00;;;;;;5063897;28;20212;-85
2022/12/09 01:21:19;;;;;;;15.30;9.00;;;-0.80;99.00;;;;;;5063582;28;20208;-84
2022/12/09 01:23:46;;;;;;;14.03;9.20;;;-0.80;99.00;;;;;;5068607;28;20201;-84
2022/12/09 01:26:14;;;;;;;15.90;8.53;;;-0.80;99.00;;;;;;5068029;28;20661;-84
2022/12/09 01:28:41;;;;;;;15.70;9.03;;;-0.80;99.00;;;;;;5067933;28;20728;-85
2022/12/09 01:31:10;;;;;;;13.73;8.77;;;-0.80;99.00;;;;;;5068211;28;20639;-84
2022/12/09 01:33:37;;;;;;;13.37;8.70;;;-0.80;99.00;;;;;;5067779;28;20723;-85
2022/12/09 01:36:07;;;;;;;11.87;8.30;;;-0.80;99.00;;;;;;5082428;28;20214;-83
2022/12/09 01:38:38;;;;;;;13.83;7.67;;;-0.70;99.00;;;;;;5073983;28;20214;-85
2022/12/09 01:41:05;;;;;;;12.53;7.80;;;-0.60;99.10;;;;;;5069186;28;20206;-85
2022/12/09 01:43:32;;;;;;;13.40;8.40;;;-0.60;99.00;;;;;;5072436;28;20748;-84
2022/12/09 01:46:02;;;;;;;12.07;7.77;;;-0.60;98.80;;;;;;5067743;28;20958;-84
2022/12/09 01:48:32;;;;;;;13.40;8.87;;;-0.70;98.80;;;;;;5067329;28;20596;-85
2022/12/09 01:51:03;;;;;;;11.77;8.00;;;-0.60;99.10;;;;;;5062879;28;20318;-83
2022/12/09 01:53:38;;;;;;;9.80;7.37;;;-0.60;98.70;;;;;;5066540;28;20236;-83
2022/12/09 01:56:08;;;;;;;11.57;7.90;;;-0.50;98.60;;;;;;5065720;28;20588;-85
2022/12/09 01:58:35;;;;;;;11.23;7.33;;;-0.40;97.90;;;;;;5066841;28;20206;-83
2022/12/09 02:01:02;;;;;;;9.93;6.93;;;-0.50;97.70;;;;;;5065245;28;20202;-83
2022/12/09 02:03:30;;;;;;;10.13;7.33;;;-0.50;97.80;;;;;;5066329;28;20302;-83
2022/12/09 02:05:58;;;;;;;12.07;7.73;;;-0.50;98.00;;;;;;5065530;28;20215;-83
2022/12/09 02:08:24;;;;;;;11.03;7.53;;;-0.40;97.60;;;;;;5070988;28;20222;-83
2022/12/09 02:11:07;;;;;;;11.63;7.50;;;-0.60;97.90;;;;;;5069309;28;20216;-84
2022/12/09 02:13:43;;;;;;;12.57;8.03;;;-0.60;98.10;;;;;;5073920;28;20225;-84
2022/12/09 02:16:15;;;;;;;14.17;8.37;;;-0.60;98.60;;;;;;5075867;28;20292;-83
2022/12/09 02:18:48;;;;;;;12.73;8.17;;;-0.60;98.50;;;;;;5067647;28;20212;-84
2022/12/09 02:21:22;;;;;;;14.17;9.13;;;-0.60;98.60;;;;;;5071065;28;20691;-83
2022/12/09 02:23:55;;;;;;;16.00;9.53;;;-0.60;98.70;;;;;;5060716;28;20297;-84
2022/12/09 02:26:32;;;;;;;14.07;8.73;;;-0.60;98.60;;;;;;5066657;28;20688;-84
2022/12/09 02:29:36;;;;;;;15.10;9.00;;;-0.60;98.70;;;;;;5068864;28;20602;-83
2022/12/09 02:32:29;;;;;;;12.57;8.87;;;-0.50;98.80;;;;;;4964036;28;20226;-83
2022/12/09 02:35:02;;;;;;;15.80;9.07;;;-0.50;98.80;;;;;;4981136;28;20246;-84
2022/12/09 02:37:35;;;;;;;15.80;9.30;;;-0.50;98.80;;;;;;4985571;28;20239;-84
2022/12/09 02:40:07;;;;;;;15.53;9.40;;;-0.50;98.90;;;;;;4989773;28;20214;-84
2022/12/09 02:42:36;;;;;;;16.37;9.43;;;-0.50;99.10;;;;;;4984886;28;20208;-84
2022/12/09 02:45:07;;;;;;;16.33;9.40;;;-0.40;98.90;;;;;;4981131;28;20208;-84
2022/12/09 02:47:42;;;;;;;13.60;9.57;;;-0.40;98.70;;;;;;4983526;28;20216;-84
2022/12/09 02:50:14;;;;;;;16.70;9.67;;;-0.40;98.60;;;;;;4986527;28;20310;-84
2022/12/09 02:52:43;;;;;;;15.63;9.30;;;-0.40;98.80;;;;;;4989002;28;20234;-84
2022/12/09 02:55:13;;;;;;;13.67;9.20;;;-0.30;99.00;;;;;;4985342;28;20328;-84
2022/12/09 02:57:41;;;;;;;14.63;8.93;;;-0.30;99.00;;;;;;4979234;28;20208;-84
2022/12/09 03:00:10;;;;;;;14.33;9.27;;;-0.30;98.70;;;;;;4980633;28;20212;-84
2022/12/09 03:02:40;;;;;;;13.70;8.60;;;-0.40;98.50;;;;;;4984225;28;20208;-84
2022/12/09 03:05:14;;;;;;;13.13;9.27;;;-0.40;98.60;;;;;;4980932;28;20675;-83
2022/12/09 03:07:45;;;;;;;13.53;9.00;;;-0.30;98.50;;;;;;4989743;28;20204;-84
2022/12/09 03:10:21;;;;;;;13.37;8.33;;;-0.40;98.60;;;;;;5068046;28;20200;-84
2022/12/09 03:12:52;;;;;;;12.37;8.63;;;-0.40;98.50;;;;;;5065357;28;20320;-84
2022/12/09 03:15:25;;;;;;;13.67;9.33;;;-0.40;98.50;;;;;;5063198;28;20197;-84
2022/12/09 03:17:53;;;;;;;16.13;9.40;;;-0.40;98.50;;;;;;5063877;28;20675;-84
2022/12/09 03:20:26;;;;;;;13.50;8.70;;;-0.40;98.50;;;;;;5062842;28;20288;-83
2022/12/09 03:22:58;;;;;;;12.70;8.30;;;-0.50;98.70;;;;;;5066313;28;20288;-84
2022/12/09 03:25:30;;;;;;;11.57;8.00;;;-0.40;98.50;;;;;;5068271;28;20209;-83
2022/12/09 03:28:01;;;;;;;11.90;7.87;;;-0.40;98.20;;;;;;5070159;28;20296;-84
2022/12/09 03:30:32;;;;;;;12.87;8.37;;;-0.40;98.30;;;;;;5067761;28;20227;-84
2022/12/09 03:33:00;;;;;;;11.97;8.33;;;-0.50;98.50;;;;;;5063500;28;20343;-84
2022/12/09 03:35:33;;;;;;;12.43;8.53;;;-0.50;98.50;;;;;;5064551;28;20211;-84
2022/12/09 03:38:03;;;;;;;12.20;8.27;;;-0.50;98.40;;;;;;5066049;28;20284;-84
2022/12/09 03:40:31;;;;;;;11.93;8.23;;;-0.50;98.50;;;;;;5062538;28;20227;-84
2022/12/09 03:43:02;;;;;;;12.30;7.93;;;-0.40;98.30;;;;;;5062064;28;20304;-83
2022/12/09 03:45:29;;;;;;;11.43;7.83;;;-0.40;98.10;;;;;;5063839;28;20224;-83
2022/12/09 03:47:56;;;;;;;13.33;8.80;;;-0.40;98.10;;;;;;5068326;28;20207;-84
2022/12/09 03:50:31;;;;;;;12.60;8.40;;;-0.40;98.20;;;;;;5068876;28;20296;-83
2022/12/09 03:53:04;;;;;;;11.67;8.30;;;-0.50;98.40;;;;;;5069962;28;20807;-84
2022/12/09 03:55:36;;;;;;;12.43;8.43;;;-0.50;98.70;;;;;;5070331;28;20240;-84
2022/12/09 03:58:05;;;;;;;11.93;8.10;;;-0.40;98.70;;;;;;5065996;28;20193;-84
2022/12/09 04:00:36;;;;;;;14.13;8.77;;;-0.20;98.20;;;;;;5064428;28;20206;-84
2022/12/09 04:03:03;;;;;;;14.67;8.10;;;-0.10;97.90;;;;;;5066351;28;20302;-84
2022/12/09 04:05:32;;;;;;;11.40;8.23;;;-0.10;97.50;;;;;;5063403;28;21449;-84
2022/12/09 04:07:59;;;;;;;16.40;8.63;;;-0.10;97.60;;;;;;5069332;28;20650;-83
2022/12/09 04:10:26;;;;;;;13.43;9.17;;;0.00;97.30;;;;;;5067235;28;20573;-84
2022/12/09 04:12:52;;;;;;;11.70;8.83;;;-0.10;97.40;;;;;;5065776;28;20235;-84
2022/12/09 04:15:19;;;;;;;13.43;8.87;;;-0.20;97.30;;;;;;5065546;28;20295;-84
2022/12/09 04:17:46;;;;;;;12.50;9.17;;;-0.40;97.70;;;;;;5069194;28;20755;-84
2022/12/09 04:20:14;;;;;;;13.70;9.53;;;-0.50;97.70;;;;;;5066194;28;20197;-84
2022/12/09 04:22:42;;;;;;;15.33;9.17;;;-0.60;98.40;;;;;;5067060;28;20217;-84
2022/12/09 04:25:09;;;;;;;15.63;9.60;;;-0.60;98.50;;;;;;5067764;28;20205;-83
2022/12/09 04:27:36;;;;;;;12.83;9.23;;;-0.60;98.70;;;;;;5069354;28;20297;-83
2022/12/09 04:30:04;;;;;;;14.73;9.47;;;-0.50;99.00;;;;;;5069576;28;20211;-83
2022/12/09 04:32:32;;;;;;;12.00;8.60;;;-0.50;98.50;;;;;;5068680;28;20581;-83
2022/12/09 04:34:59;;;;;;;14.87;9.20;;;-0.50;98.70;;;;;;5067330;28;20206;-84
2022/12/09 04:37:26;;;;;;;11.87;8.23;;;-0.50;98.60;;;;;;5066441;28;20230;-83
2022/12/09 04:39:54;;;;;;;12.40;8.50;;;-0.40;98.20;;;;;;5068488;28;20204;-84
2022/12/09 04:42:21;;;;;;;12.80;8.53;;;-0.40;98.20;;;;;;5069389;28;20227;-84
2022/12/09 04:44:49;;;;;;;13.37;8.70;;;-0.40;98.00;;;;;;5066192;28;20216;-83
2022/12/09 04:47:16;;;;;;;12.43;8.50;;;-0.40;98.00;;;;;;5068218;28;20203;-84
2022/12/09 04:49:43;;;;;;;13.50;9.13;;;-0.50;97.80;;;;;;5064943;28;20276;-84
2022/12/09 04:52:10;;;;;;;14.93;9.17;;;-0.50;97.90;;;;;;5066872;28;20219;-84
2022/12/09 04:54:37;;;;;;;13.97;9.77;;;-0.60;98.20;;;;;;5063321;28;20322;-83
2022/12/09 04:57:05;;;;;;;14.30;9.10;;;-0.60;98.40;;;;;;5064800;28;20210;-83
2022/12/09 04:59:32;;;;;;;12.77;8.53;;;-0.40;98.40;;;;;;5064131;28;20254;-83
2022/12/09 05:01:59;;;;;;;13.33;8.97;;;-0.50;98.20;;;;;;5063509;28;20209;-84
2022/12/09 05:04:31;;;;;;;12.50;8.93;;;-0.50;98.20;;;;;;5067552;28;20296;-85
2022/12/09 05:06:58;;;;;;;12.83;8.87;;;-0.60;98.40;;;;;;5065769;28;21498;-83
2022/12/09 05:09:25;;;;;;;13.77;9.17;;;-0.60;98.60;;;;;;5069940;28;20654;-84
2022/12/09 05:11:52;;;;;;;13.53;8.57;;;-0.60;98.80;;;;;;5069501;28;20598;-84
2022/12/09 05:14:21;;;;;;;13.90;8.90;;;-0.60;99.20;;;;;;5072580;28;20229;-84
2022/12/09 05:16:47;;;;;;;13.20;9.27;;;-0.60;99.10;;;;;;5064680;28;20284;-84
2022/12/09 05:19:14;;;;;;;13.83;9.13;;;-0.60;99.10;;;;;;5073358;28;20213;-83
2022/12/09 05:21:42;;;;;;;11.97;8.40;;;-0.50;99.10;;;;;;5068696;28;20205;-83
2022/12/09 05:24:10;;;;;;;12.77;9.00;;;-0.50;98.80;;;;;;5067985;28;20224;-83
2022/12/09 05:26:38;;;;;;;12.73;8.10;;;-0.40;98.60;;;;;;5070620;28;20211;-84
2022/12/09 05:29:07;;;;;;;12.97;9.00;;;-0.20;98.10;;;;;;5065729;28;20286;-84
2022/12/09 05:31:36;;;;;;;14.37;8.93;;;-0.20;97.60;;;;;;5067614;28;20285;-84
2022/12/09 05:34:03;;;;;;;16.60;8.80;;;-0.30;97.70;;;;;;5066740;28;20312;-83
2022/12/09 05:36:30;;;;;;;14.13;8.97;;;-0.40;98.10;;;;;;5064503;28;20205;-83
2022/12/09 05:38:56;;;;;;;12.13;8.60;;;-0.40;98.40;;;;;;5066023;28;20205;-84
2022/12/09 05:41:24;;;;;;;12.57;9.30;;;-0.40;98.50;;;;;;5064710;28;20204;-84
2022/12/09 05:43:51;;;;;;;19.27;10.70;;;-0.40;98.50;;;;;;5063695;28;20209;-83
2022/12/09 05:46:20;;;;;;;16.73;10.57;;;-0.40;98.70;;;;;;5064600;28;20207;-83
2022/12/09 05:48:48;;;;;;;17.73;11.50;;;-0.30;99.10;;;;;;5069619;28;20208;-84
2022/12/09 05:51:21;;;;;;;19.10;11.60;;;-0.30;99.10;;;;;;5061106;28;20281;-83
2022/12/09 05:53:48;;;;;;;17.90;11.73;;;-0.10;98.40;;;;;;5063073;28;20236;-84
2022/12/09 05:56:15;;;;;;;22.17;12.83;;;-0.20;98.50;;;;;;5061771;28;20279;-84
2022/12/09 05:58:42;;;;;;;20.97;12.57;;;-0.30;99.00;;;;;;5065125;28;20197;-83
2022/12/09 06:01:09;;;;;;;18.53;11.70;;;-0.40;99.10;;;;;;5066191;28;20706;-84
2022/12/09 06:03:37;;;;;;;23.50;13.17;;;-0.40;99.10;;;;;;5068611;28;20201;-84
2022/12/09 06:06:07;;;;;;;18.03;12.00;;;-0.40;99.30;;;;;;5064113;28;20201;-84
2022/12/09 06:08:36;;;;;;;20.80;12.87;;;-0.50;99.50;;;;;;5060869;28;20209;-80
2022/12/09 06:11:03;;;;;;;21.73;12.53;;;-0.50;99.70;;;;;;5061982;28;20602;-84
2022/12/09 06:13:31;;;;;;;19.07;12.07;;;-0.40;99.70;;;;;;5062501;28;20224;-84
2022/12/09 06:16:03;;;;;;;18.30;12.23;;;-0.40;99.80;;;;;;5064295;28;20283;-84
2022/12/09 06:18:30;;;;;;;18.07;11.57;;;-0.30;99.10;;;;;;5065111;28;20209;-85
2022/12/09 06:20:57;;;;;;;19.60;11.63;;;-0.30;99.10;;;;;;5067792;28;20938;-87
2022/12/09 06:23:26;;;;;;;16.47;11.07;;;-0.20;99.10;;;;;;5065353;28;20209;-81
2022/12/09 06:25:56;;;;;;;16.63;10.93;;;-0.20;99.10;;;;;;5066108;28;20228;-84
2022/12/09 06:28:23;;;;;;;17.67;11.47;;;-0.10;98.60;;;;;;5065604;28;20843;-83
2022/12/09 06:30:49;;;;;;;18.40;12.20;;;-0.20;98.50;;;;;;5064550;28;20208;-82
2022/12/09 06:33:16;;;;;;;17.37;11.30;;;-0.20;98.80;;;;;;5065972;28;20257;-84
2022/12/09 06:35:50;;;;;;;16.53;11.13;;;-0.10;98.70;;;;;;5066927;28;20293;-83
2022/12/09 06:38:16;;;;;;;16.70;10.93;;;-0.10;98.50;;;;;;5065651;28;20525;-83
2022/12/09 06:40:45;;;;;;;15.03;10.97;;;-0.20;98.40;;;;;;5064066;28;20197;-86
2022/12/09 06:43:12;;;;;;;15.90;10.63;;;-0.20;98.50;;;;;;5063823;28;20210;-83
2022/12/09 06:45:43;;;;;;;15.23;10.77;;;-0.10;98.30;;;;;;5065871;28;20201;-84
2022/12/09 06:48:10;;;;;;;14.77;10.27;;;-0.10;98.00;;;;;;5068792;28;20202;-84
2022/12/09 06:50:38;;;;;;;17.50;10.87;;;-0.10;98.00;;;;;;5070647;28;20212;-83
2022/12/09 06:53:05;;;;;;;14.87;9.90;;;-0.10;98.00;;;;;;5067317;28;20225;-83
2022/12/09 06:55:32;;;;;;;14.17;9.90;;;-0.10;98.00;;;;;;5064763;28;20201;-84
2022/12/09 06:58:00;;;;;;;15.67;9.67;;;-0.10;98.10;;;;;;5065958;28;20211;-85
2022/12/09 07:00:27;;;;;;;13.40;9.40;;;0.00;97.70;;;;;;5063316;28;20198;-84
2022/12/09 07:02:54;;;;;;;14.10;8.97;;;0.00;97.70;;;;;;5068529;28;20197;-84
2022/12/09 07:05:25;;;;;;;13.03;9.27;;;0.00;97.80;;;;;;5065015;28;20304;-84
2022/12/09 07:07:52;;;;;;;12.37;8.87;;;0.10;97.50;;;;;;5063578;28;20248;-84
2022/12/09 07:10:20;;;;;;;12.37;8.70;;;0.20;97.10;;;;;;5071072;28;20205;-82
2022/12/09 07:12:47;;;;;;;15.03;9.00;;;0.20;97.00;;;;;;5067115;28;20696;-86
2022/12/09 07:15:15;;;;;;;13.33;9.60;;;0.40;96.70;;;;;;5062386;28;20761;-82
2022/12/09 07:17:42;;;;;;;13.17;9.37;;;0.50;96.30;;;;;;5065788;28;20212;-83
2022/12/09 07:20:10;;;;;;;13.90;9.57;;;0.40;96.20;;;;;;5070703;28;20197;-83
2022/12/09 07:22:37;;;;;;;12.33;8.57;;;0.40;96.30;;;;;;5070470;28;20288;-85
2022/12/09 07:25:08;;;;;;;14.70;9.40;;;0.30;96.70;;;;;;5069769;28;20339;-82
2022/12/09 07:27:35;;;;;;;13.93;9.37;;;0.50;95.90;;;;;;5065321;28;20209;-82
2022/12/09 07:30:02;;;;;;;12.23;9.13;;;0.30;96.00;;;;;;5065981;28;20229;-83
2022/12/09 07:32:30;;;;;;;15.77;9.30;;;0.20;96.70;;;;;;5064979;28;20232;-84
2022/12/09 07:34:57;;;;;;;13.53;9.20;;;0.20;96.80;;;;;;5067934;28;20308;-82
2022/12/09 07:37:24;;;;;;;12.97;8.97;;;0.10;96.70;;;;;;5069859;28;20730;-83
2022/12/09 07:39:51;;;;;;;15.03;9.63;;;0.20;96.70;;;;;;5063941;28;20212;-84
2022/12/09 07:42:18;;;;;;;14.47;9.30;;;0.20;96.70;;;;;;5064330;28;20228;-83
2022/12/09 07:44:45;;;;;;;12.00;7.77;;;0.10;97.10;;;;;;5069362;28;20205;-84
2022/12/09 07:47:14;;;;;;;12.10;8.63;;;0.20;96.90;;;;;;5059963;28;20533;-84
2022/12/09 07:49:43;;;;;;;13.23;8.97;;;0.30;96.50;;;;;;5058347;28;20288;-84
2022/12/09 07:52:11;;;;;;;14.67;9.27;;;0.30;96.70;;;;;;5058580;28;20211;-84
2022/12/09 07:54:38;;;;;;;15.03;10.17;;;0.40;96.70;;;;;;5061365;28;20774;-86
2022/12/09 07:57:05;;;;;;;16.90;10.37;;;0.30;96.70;;;;;;5064596;28;20205;-85
2022/12/09 07:59:32;;;;;;;16.97;11.43;;;0.30;96.70;;;;;;5065846;28;20212;-84
2022/12/09 08:01:59;;;;;;;16.53;10.40;;;0.30;96.70;;;;;;5058555;28;20288;-86
2022/12/09 08:04:26;;;;;;;14.17;9.57;;;0.40;96.70;;;;;;5061241;28;20213;-85
2022/12/09 08:06:54;;;;;;;17.63;9.77;;;0.30;96.70;;;;;;5064272;28;20844;-85
2022/12/09 08:09:21;;;;;;;17.93;10.80;;;0.30;97.10;;;;;;5062666;28;20663;-84
2022/12/09 08:11:48;;;;;;;15.27;10.27;;;0.30;97.00;;;;;;5067869;28;20215;-85
2022/12/09 08:14:15;;;;;;;15.63;10.60;;;0.30;97.20;;;;;;5060356;28;20222;-84
2022/12/09 08:16:42;;;;;;;17.30;10.67;;;0.30;96.90;;;;;;5069615;28;20208;-85
2022/12/09 08:19:14;;;;;;;16.60;10.90;;;0.40;96.90;;;;;;5064517;28;20582;-85
2022/12/09 08:21:41;;;;;;;15.93;11.20;;;0.50;96.80;;;;;;5070023;28;20717;-84
2022/12/09 08:24:11;;;;;;;15.47;10.83;;;0.50;96.70;;;;;;5069456;28;20284;-84
2022/12/09 08:26:38;;;;;;;15.00;10.60;;;0.50;96.50;;;;;;5062855;28;20202;-84
2022/12/09 08:29:08;;;;;;;15.50;11.20;;;0.80;96.40;;;;;;5065173;28;20661;-85
2022/12/09 08:31:35;;;;;;;16.27;11.63;;;0.90;95.80;;;;;;5067398;28;20288;-84
2022/12/09 08:34:03;;;;;;;18.43;11.67;;;0.80;95.90;;;;;;5065300;28;20284;-84
2022/12/09 08:36:31;;;;;;;16.77;11.77;;;0.80;95.90;;;;;;5069467;28;20284;-83
2022/12/09 08:39:00;;;;;;;18.40;11.77;;;0.70;96.20;;;;;;5067084;28;20197;-83
2022/12/09 08:41:35;;;;;;;21.23;12.93;;;0.70;96.60;;;;;;5062252;28;20657;-82
2022/12/09 08:44:04;;;;;;;17.83;11.97;;;0.80;96.50;;;;;;5064523;28;20205;-83
2022/12/09 08:46:31;;;;;;;18.13;12.97;;;0.80;96.60;;;;;;5059647;28;20553;-83
2022/12/09 08:49:00;;;;;;;24.63;13.30;;;0.70;96.80;;;;;;5065758;28;20291;-83
2022/12/09 08:51:27;;;;;;;20.23;12.67;;;0.70;96.70;;;;;;5062022;28;20259;-83
2022/12/09 08:53:54;;;;;;;19.60;12.73;;;0.80;96.70;;;;;;5063539;28;20306;-83
2022/12/09 08:56:26;;;;;;;19.53;12.70;;;0.90;96.30;;;;;;5068877;28;20292;-83
2022/12/09 08:58:55;;;;;;;18.73;13.13;;;0.90;96.10;;;;;;5070090;28;20205;-83
2022/12/09 09:01:24;;;;;;;18.70;12.43;;;0.90;96.30;;;;;;5065717;28;20232;-83
2022/12/09 09:03:51;;;;;;;20.50;13.40;;;1.00;96.30;;;;;;5067596;28;20240;-83
2022/12/09 09:06:26;;;;;;;19.77;14.00;;;1.00;96.00;;;;;;5065572;28;20316;-83
2022/12/09 09:08:53;;;;;;;20.73;14.00;;;1.10;96.20;;;;;;5067022;28;20201;-83
2022/12/09 09:11:20;;;;;;;29.50;18.40;;;1.20;95.90;;;;;;5059892;28;20236;-84
2022/12/09 09:13:50;;;;;;;27.93;18.23;;;1.50;96.20;;;;;;5064983;28;20566;-83
2022/12/09 09:16:20;;;;;;;37.93;23.03;;;1.70;96.50;;;;;;5051859;28;20202;-84
2022/12/09 09:18:50;;;;;;;23.17;14.53;;;1.70;96.60;;;;;;5061950;28;20259;-83
2022/12/09 09:21:19;;;;;;;18.00;13.07;;;1.70;95.40;;;;;;5063849;28;20300;-83
2022/12/09 09:23:47;;;;;;;22.63;13.67;;;1.70;94.40;;;;;;5063987;28;20284;-83
2022/12/09 09:26:16;;;;;;;19.23;13.47;;;1.50;94.30;;;;;;5065654;28;20648;-83
2022/12/09 09:28:43;;;;;;;21.23;13.90;;;1.40;94.90;;;;;;5062855;28;20288;-83
2022/12/09 09:31:12;;;;;;;20.63;13.93;;;1.40;95.10;;;;;;5066983;28;20292;-83
2022/12/09 09:33:41;;;;;;;22.30;13.90;;;1.40;94.50;;;;;;5065522;28;20233;-84
2022/12/09 09:36:11;;;;;;;19.10;13.53;;;1.40;94.30;;;;;;5060870;28;20318;-83
2022/12/09 09:38:38;;;;;;;22.80;14.03;;;1.50;94.30;;;;;;5068707;28;20248;-83
2022/12/09 09:41:16;;;;;;;20.60;14.17;;;1.50;94.30;;;;;;5067246;28;20296;-83
2022/12/09 09:43:43;;;;;;;20.70;14.43;;;1.50;94.30;;;;;;5064135;28;20239;-84
2022/12/09 09:46:18;;;;;;;20.13;14.07;;;1.50;94.30;;;;;;5064142;28;20202;-83
2022/12/09 09:48:52;;;;;;;21.53;14.63;;;1.50;94.30;;;;;;5063234;28;20383;-83
2022/12/09 09:51:21;;;;;;;24.10;15.10;;;1.50;94.50;;;;;;5067068;28;20243;-83
2022/12/09 09:53:51;;;;;;;22.40;14.43;;;1.50;94.30;;;;;;5064822;28;20377;-83
2022/12/09 09:56:26;;;;;;;23.63;14.30;;;1.40;94.60;;;;;;5067116;28;20204;-83
2022/12/09 09:59:15;;;;;;;21.37;14.60;;;1.40;94.60;;;;;;5065665;28;20200;-83
2022/12/09 10:01:50;;;;;;;20.57;14.60;;;1.50;94.30;;;;;;5065394;28;20275;-83
2022/12/09 10:04:27;;;;;;;24.47;15.10;;;1.50;94.30;;;;;;5064169;28;20283;-83
2022/12/09 10:07:01;;;;;;;22.93;15.40;;;1.50;94.30;;;;;;5070771;28;20287;-84
2022/12/09 10:09:34;;;;;;;22.30;14.57;;;1.60;94.40;;;;;;5069006;28;20207;-84
2022/12/09 10:12:10;;;;;;;23.37;15.07;;;1.60;94.40;;;;;;5064658;28;20288;-84
2022/12/09 10:14:48;;;;;;;23.23;15.43;;;1.50;94.30;;;;;;5068552;28;20323;-89
2022/12/09 10:17:27;;;;;;;23.87;14.80;;;1.50;94.30;;;;;;5062765;28;20246;-84
2022/12/09 10:19:58;;;;;;;23.90;15.27;;;1.50;94.30;;;;;;5064144;28;20657;-84
2022/12/09 10:22:29;;;;;;;22.50;14.53;;;1.50;94.30;;;;;;5061957;28;20272;-84
2022/12/09 10:24:58;;;;;;;27.40;16.60;;;1.60;94.40;;;;;;5068146;28;20769;-83
2022/12/09 10:27:37;;;;;;;26.00;16.37;;;1.50;94.50;;;;;;5067689;28;20205;-84
2022/12/09 10:30:09;;;;;;;27.17;15.07;;;1.40;94.80;;;;;;5064426;28;20567;-84
2022/12/09 10:32:37;;;;;;;26.37;16.00;;;1.50;94.30;;;;;;5063763;28;20248;-84
2022/12/09 10:35:14;;;;;;;24.37;15.67;;;1.40;94.50;;;;;;5066285;28;20303;-84
2022/12/09 10:37:44;;;;;;;26.57;15.50;;;1.30;95.00;;;;;;5068169;28;20240;-84
2022/12/09 10:40:20;;;;;;;22.63;15.00;;;1.40;95.30;;;;;;5064775;28;20222;-84
2022/12/09 10:45:47;;;;;;;24.03;15.50;;;1.40;94.80;;;;;;4989178;28;20208;-83
2022/12/09 10:48:21;;;;;;;25.33;15.50;;;1.50;95.10;;;;;;4994389;28;20295;-84
2022/12/09 10:50:55;;;;;;;22.67;15.33;;;1.40;94.90;;;;;;4987885;28;20200;-84
2022/12/09 10:53:27;;;;;;;25.40;16.10;;;1.40;95.10;;;;;;4987736;28;20818;-90
2022/12/09 10:55:56;;;;;;;26.00;15.47;;;1.50;95.00;;;;;;4984881;28;20224;-83
2022/12/09 10:58:25;;;;;;;24.30;14.57;;;1.70;94.90;;;;;;4990277;28;20665;-83
2022/12/09 11:01:05;;;;;;;28.23;16.33;;;1.70;94.40;;;;;;4987348;28;20294;-83
2022/12/09 11:03:35;;;;;;;27.80;16.57;;;1.70;94.40;;;;;;4989909;28;20637;-82
2022/12/09 11:06:14;;;;;;;26.23;15.60;;;1.70;94.70;;;;;;4989309;28;20307;-83
2022/12/09 11:08:48;;;;;;;27.23;17.27;;;1.60;94.50;;;;;;4987357;28;21641;-83
2022/12/09 11:11:15;;;;;;;24.53;16.23;;;1.70;94.90;;;;;;4989090;28;20200;-84
2022/12/09 11:13:43;;;;;;;26.23;16.50;;;1.70;94.60;;;;;;4989938;28;20208;-84
2022/12/09 11:16:11;;;;;;;28.10;16.23;;;1.80;94.40;;;;;;4990103;28;20251;-84
2022/12/09 11:18:44;;;;;;;27.43;17.07;;;1.80;94.40;;;;;;4991069;28;20234;-83
2022/12/09 11:21:33;;;;;;;24.37;15.90;;;1.80;94.70;;;;;;5022183;28;20208;-84
2022/12/09 11:24:00;;;;;;;26.93;16.43;;;1.90;94.40;;;;;;5071339;28;20676;-83
2022/12/09 11:26:35;;;;;;;25.33;15.90;;;1.90;93.90;;;;;;5069117;28;20213;-83
2022/12/09 11:29:04;;;;;;;23.17;15.20;;;2.00;94.40;;;;;;5072893;28;20600;-84
2022/12/09 11:31:37;;;;;;;24.30;13.97;;;2.00;93.70;;;;;;5070914;28;20197;-83
2022/12/09 11:34:14;;;;;;;23.97;14.60;;;2.00;93.40;;;;;;5071474;28;20288;-83
2022/12/09 11:36:47;;;;;;;23.60;14.40;;;2.10;93.30;;;;;;5059463;28;20218;-83
2022/12/09 11:39:27;;;;;;;24.27;15.33;;;2.10;93.70;;;;;;5061798;28;20300;-86
2022/12/09 11:42:16;;;;;;;25.33;16.30;;;2.00;93.70;;;;;;5067041;28;20627;-83
2022/12/09 11:44:55;;;;;;;24.47;15.80;;;2.00;93.70;;;;;;5065686;28;20228;-84
2022/12/09 11:47:27;;;;;;;30.30;17.10;;;1.90;94.40;;;;;;5067793;28;20303;-85
2022/12/09 11:49:57;;;;;;;28.67;16.43;;;1.90;94.10;;;;;;5066230;28;20255;-85
2022/12/09 11:52:30;;;;;;;31.27;16.97;;;1.90;94.40;;;;;;5065437;28;20202;-84
2022/12/09 11:55:10;;;;;;;27.23;16.10;;;1.90;94.50;;;;;;5066719;28;20304;-90
2022/12/09 11:57:45;;;;;;;27.90;15.90;;;2.00;94.20;;;;;;5068492;28;20232;-85
2022/12/09 12:00:18;;;;;;;28.50;16.60;;;2.00;94.40;;;;;;5066786;28;20276;-85
2022/12/09 12:02:50;;;;;;;31.43;17.40;;;2.00;93.80;;;;;;5069277;28;20255;-86
2022/12/09 12:05:24;;;;;;;29.47;17.13;;;2.00;94.10;;;;;;5064034;28;20233;-85
2022/12/09 12:08:06;;;;;;;30.07;17.40;;;2.00;94.20;;;;;;5068078;28;20237;-85
2022/12/09 12:10:38;;;;;;;29.07;17.17;;;2.00;94.10;;;;;;5061217;28;20205;-88
2022/12/09 12:13:14;;;;;;;29.27;17.27;;;2.00;94.00;;;;;;5066890;28;20202;-83
2022/12/09 12:15:49;;;;;;;32.77;18.07;;;2.10;94.30;;;;;;5066552;28;20256;-83
2022/12/09 12:18:19;;;;;;;27.60;16.57;;;2.20;93.80;;;;;;5060151;28;20244;-84
2022/12/09 12:21:09;;;;;;;31.73;18.37;;;2.30;93.70;;;;;;5068334;28;20205;-83
2022/12/09 12:23:55;;;;;;;28.47;17.23;;;2.10;93.70;;;;;;5069978;28;20219;-84
2022/12/09 12:26:25;;;;;;;29.80;17.03;;;2.00;94.00;;;;;;5066938;28;20684;-83
2022/12/09 12:29:17;;;;;;;27.70;16.83;;;2.10;94.40;;;;;;5070087;28;20759;-84
2022/12/09 12:32:14;;;;;;;25.27;15.30;;;2.20;93.60;;;;;;5064984;28;20212;-85
2022/12/09 12:34:54;;;;;;;30.50;16.80;;;2.20;93.60;;;;;;5068710;28;20209;-84
2022/12/09 12:37:36;;;;;;;32.17;17.20;;;2.30;93.40;;;;;;5065366;28;20201;-83
2022/12/09 12:40:10;;;;;;;26.90;16.37;;;2.10;94.00;;;;;;5061145;28;20296;-84
2022/12/09 12:48:32;;;;;;;29.77;17.03;;;2.30;93.50;;;;;;5063301;28;20266;-85
2022/12/09 12:51:14;;;;;;;27.20;16.10;;;2.30;93.90;;;;;;5068111;28;20237;-85
2022/12/09 12:53:47;;;;;;;25.40;15.10;;;2.40;93.40;;;;;;5067909;28;20260;-85
2022/12/09 12:56:20;;;;;;;27.13;16.17;;;2.30;93.30;;;;;;5060030;28;20249;-85
2022/12/09 12:59:00;;;;;;;25.10;15.93;;;2.40;93.60;;;;;;5065208;28;20284;-85
2022/12/09 13:01:50;;;;;;;27.07;16.13;;;2.30;93.80;;;;;;5066988;28;20223;-84